createdAt,value
2023-04-07T00:25:26.475Z,98025.78
2023-04-07T00:45:32.321Z,98002.72
2023-04-07T03:08:19.178Z,97949.78
2023-04-07T03:48:46.076Z,97951.41
2023-04-07T04:09:51.414Z,97934.84
2023-04-07T05:09:59.290Z,97959.16
2023-04-07T05:30:02.219Z,97971.78
2023-04-07T05:50:23.673Z,97948.38
2023-04-07T06:10:26.293Z,97967.88
2023-04-07T06:30:29.394Z,97957.00
2023-04-07T07:10:56.203Z,97961.94
2023-04-07T07:31:01.325Z,97941.84
2023-04-07T07:51:09.416Z,97975.06
2023-04-07T08:52:14.193Z,97981.31
2023-04-07T09:32:52.225Z,97966.72
2023-04-07T09:52:59.083Z,97961.28
2023-04-07T10:13:11.590Z,97962.06
2023-04-07T10:33:17.181Z,97970.56
2023-04-07T11:54:32.295Z,97948.16
2023-04-07T13:15:23.224Z,97950.44
2023-04-07T13:35:26.335Z,97958.28
2023-04-07T13:55:29.049Z,97972.59
2023-04-07T14:15:31.698Z,97970.69
2023-04-07T14:35:35.031Z,97970.09
2023-04-07T14:55:38.422Z,97959.47
2023-04-07T15:15:41.096Z,97958.47
2023-04-07T15:35:43.954Z,97971.16
2023-04-07T15:55:46.934Z,97971.44
2023-04-07T16:15:49.669Z,97967.09
2023-04-07T16:35:53.273Z,97979.47
2023-04-07T16:55:56.094Z,97985.00
2023-04-07T17:15:58.797Z,98003.84
2023-04-07T17:36:01.673Z,98014.63
2023-04-07T17:56:04.566Z,98036.38
2023-04-07T18:16:10.749Z,98054.28
2023-04-07T18:36:14.274Z,98079.94
2023-04-07T18:56:17.142Z,98093.09
2023-04-07T19:16:20.138Z,98101.16
2023-04-07T19:36:22.970Z,98106.97
2023-04-07T19:56:26.369Z,98110.53
2023-04-07T20:16:29.121Z,98123.72
2023-04-07T20:36:32.717Z,98134.22
2023-04-07T20:56:36.006Z,98145.62
2023-04-07T21:16:38.643Z,98168.38
2023-04-07T21:36:42.698Z,98174.97
2023-04-07T21:56:50.544Z,98181.69
